WSSL/XSP METAR and TAF weather

Enter ICAO airport designator
Station Type Date Time Source
WSSL METAR 2022/08/16 19:00 UTC NOAA

WSSL 161900Z VRB01KT 6000 NSC 26/25 Q1009


Station Type Date Time Source
WSSL Decoded METAR 2022/08/16 19:00 UTC NOAA

Station name not available
Aug 16, 2022 - 03:00 PM EDT / 2022.08.16 1900 UTC
Wind: Variable at 1 MPH (1 KT):0
Visibility: 3 mile(s):0
Temperature: 78 F (26 C)
Dew Point: 77 F (25 C)
Relative Humidity: 94%
Pressure (altimeter): 29.80 in. Hg (1009 hPa)
ob: WSSL 161900Z VRB01KT 6000 NSC 26/25 Q1009
cycle: 19

Station Type Date Time Source
WSSL TAF 2022/08/16 18:00 UTC NOAA

TAF WSSL 161700Z 1618/1800 19007KT 9999 FEW015 BKN020
TEMPO 1701/1705 3000 TSRA FEW012CB BKN015

Example: see airport list